sensor_id;sensor_type;location;lat;lon;timestamp;P1;durP1;ratioP1;P2;durP2;ratioP2
35644;SDS011;21764;52.042;6.830;2024-02-14T00:02:35;13.95;;;6.78;;
35644;SDS011;21764;52.042;6.830;2024-02-14T00:07:37;17.80;;;7.45;;
35644;SDS011;21764;52.042;6.830;2024-02-14T00:12:39;20.05;;;8.77;;
35644;SDS011;21764;52.042;6.830;2024-02-14T00:17:40;23.15;;;7.85;;
35644;SDS011;21764;52.042;6.830;2024-02-14T00:22:41;24.05;;;9.05;;
35644;SDS011;21764;52.042;6.830;2024-02-14T00:27:42;18.10;;;8.93;;
35644;SDS011;21764;52.042;6.830;2024-02-14T00:32:43;16.65;;;9.10;;
35644;SDS011;21764;52.042;6.830;2024-02-14T00:37:44;21.25;;;10.48;;
35644;SDS011;21764;52.042;6.830;2024-02-14T00:42:46;19.85;;;10.95;;
35644;SDS011;21764;52.042;6.830;2024-02-14T00:47:47;23.92;;;12.40;;
35644;SDS011;21764;52.042;6.830;2024-02-14T00:52:48;22.85;;;10.77;;
35644;SDS011;21764;52.042;6.830;2024-02-14T00:57:49;17.00;;;10.95;;
35644;SDS011;21764;52.042;6.830;2024-02-14T01:02:51;18.30;;;11.80;;
35644;SDS011;21764;52.042;6.830;2024-02-14T01:07:52;21.30;;;11.45;;
35644;SDS011;21764;52.042;6.830;2024-02-14T01:12:54;18.20;;;10.75;;
35644;SDS011;21764;52.042;6.830;2024-02-14T01:17:55;18.85;;;10.23;;
35644;SDS011;21764;52.042;6.830;2024-02-14T01:22:56;15.85;;;9.18;;
35644;SDS011;21764;52.042;6.830;2024-02-14T01:27:57;22.98;;;10.43;;
35644;SDS011;21764;52.042;6.830;2024-02-14T01:32:58;22.27;;;8.85;;
35644;SDS011;21764;52.042;6.830;2024-02-14T01:38:00;15.18;;;8.68;;
35644;SDS011;21764;52.042;6.830;2024-02-14T01:43:02;17.52;;;8.13;;
35644;SDS011;21764;52.042;6.830;2024-02-14T01:48:04;12.27;;;8.73;;
35644;SDS011;21764;52.042;6.830;2024-02-14T01:53:06;13.25;;;9.10;;
35644;SDS011;21764;52.042;6.830;2024-02-14T01:58:07;12.55;;;7.72;;
35644;SDS011;21764;52.042;6.830;2024-02-14T02:03:09;14.20;;;8.43;;
35644;SDS011;21764;52.042;6.830;2024-02-14T02:08:10;14.85;;;9.23;;
35644;SDS011;21764;52.042;6.830;2024-02-14T02:13:12;16.58;;;7.47;;
35644;SDS011;21764;52.042;6.830;2024-02-14T02:18:15;17.52;;;8.10;;
35644;SDS011;21764;52.042;6.830;2024-02-14T02:23:16;12.52;;;8.43;;
35644;SDS011;21764;52.042;6.830;2024-02-14T02:28:18;12.80;;;7.35;;
35644;SDS011;21764;52.042;6.830;2024-02-14T02:33:19;14.98;;;8.38;;
35644;SDS011;21764;52.042;6.830;2024-02-14T02:38:21;13.52;;;7.60;;
35644;SDS011;21764;52.042;6.830;2024-02-14T02:43:22;10.77;;;8.05;;
35644;SDS011;21764;52.042;6.830;2024-02-14T02:48:24;12.15;;;7.55;;
35644;SDS011;21764;52.042;6.830;2024-02-14T02:53:25;17.00;;;7.97;;
35644;SDS011;21764;52.042;6.830;2024-02-14T02:58:26;15.02;;;8.95;;
35644;SDS011;21764;52.042;6.830;2024-02-14T03:03:27;15.38;;;8.70;;
35644;SDS011;21764;52.042;6.830;2024-02-14T03:08:33;14.57;;;9.43;;
35644;SDS011;21764;52.042;6.830;2024-02-14T03:13:37;14.50;;;8.68;;
35644;SDS011;21764;52.042;6.830;2024-02-14T03:18:40;15.35;;;8.90;;
35644;SDS011;21764;52.042;6.830;2024-02-14T03:23:42;16.90;;;9.90;;
35644;SDS011;21764;52.042;6.830;2024-02-14T03:28:45;15.70;;;8.83;;
35644;SDS011;21764;52.042;6.830;2024-02-14T03:33:48;18.15;;;8.20;;
35644;SDS011;21764;52.042;6.830;2024-02-14T03:38:49;14.43;;;9.60;;
35644;SDS011;21764;52.042;6.830;2024-02-14T03:43:50;22.80;;;9.38;;
35644;SDS011;21764;52.042;6.830;2024-02-14T03:48:54;18.30;;;9.55;;
35644;SDS011;21764;52.042;6.830;2024-02-14T03:53:55;13.23;;;8.95;;
35644;SDS011;21764;52.042;6.830;2024-02-14T03:58:59;13.53;;;9.73;;
35644;SDS011;21764;52.042;6.830;2024-02-14T04:04:01;13.70;;;9.95;;
35644;SDS011;21764;52.042;6.830;2024-02-14T04:09:02;16.73;;;9.68;;
35644;SDS011;21764;52.042;6.830;2024-02-14T04:14:12;18.83;;;10.60;;
35644;SDS011;21764;52.042;6.830;2024-02-14T04:19:16;17.92;;;10.23;;
35644;SDS011;21764;52.042;6.830;2024-02-14T04:24:17;19.00;;;11.07;;
35644;SDS011;21764;52.042;6.830;2024-02-14T04:29:18;19.60;;;12.15;;
35644;SDS011;21764;52.042;6.830;2024-02-14T04:34:19;14.32;;;11.07;;
35644;SDS011;21764;52.042;6.830;2024-02-14T04:39:21;17.88;;;12.82;;
35644;SDS011;21764;52.042;6.830;2024-02-14T04:44:22;22.40;;;13.27;;
35644;SDS011;21764;52.042;6.830;2024-02-14T04:49:23;20.67;;;13.68;;
35644;SDS011;21764;52.042;6.830;2024-02-14T04:54:24;22.90;;;15.00;;
35644;SDS011;21764;52.042;6.830;2024-02-14T04:59:26;20.48;;;14.85;;
35644;SDS011;21764;52.042;6.830;2024-02-14T05:04:27;30.75;;;16.98;;
35644;SDS011;21764;52.042;6.830;2024-02-14T05:09:32;24.35;;;16.52;;
35644;SDS011;21764;52.042;6.830;2024-02-14T05:14:44;21.83;;;16.02;;
35644;SDS011;21764;52.042;6.830;2024-02-14T05:19:46;23.77;;;17.65;;
35644;SDS011;21764;52.042;6.830;2024-02-14T05:24:47;25.15;;;16.00;;
35644;SDS011;21764;52.042;6.830;2024-02-14T05:29:48;29.23;;;17.45;;
35644;SDS011;21764;52.042;6.830;2024-02-14T05:34:50;35.03;;;18.45;;
35644;SDS011;21764;52.042;6.830;2024-02-14T05:39:51;30.17;;;18.88;;
35644;SDS011;21764;52.042;6.830;2024-02-14T05:44:53;34.25;;;18.15;;
35644;SDS011;21764;52.042;6.830;2024-02-14T05:49:54;31.77;;;20.25;;
35644;SDS011;21764;52.042;6.830;2024-02-14T05:54:59;30.50;;;20.15;;
35644;SDS011;21764;52.042;6.830;2024-02-14T06:00:00;31.95;;;18.73;;
35644;SDS011;21764;52.042;6.830;2024-02-14T06:05:08;34.40;;;20.25;;
35644;SDS011;21764;52.042;6.830;2024-02-14T06:10:12;29.23;;;19.15;;
35644;SDS011;21764;52.042;6.830;2024-02-14T06:15:13;32.05;;;20.55;;
35644;SDS011;21764;52.042;6.830;2024-02-14T06:20:14;33.30;;;20.30;;
35644;SDS011;21764;52.042;6.830;2024-02-14T06:25:15;36.55;;;21.73;;
35644;SDS011;21764;52.042;6.830;2024-02-14T06:30:16;32.10;;;21.23;;
35644;SDS011;21764;52.042;6.830;2024-02-14T06:35:20;29.65;;;20.25;;
35644;SDS011;21764;52.042;6.830;2024-02-14T06:40:21;29.02;;;20.42;;
35644;SDS011;21764;52.042;6.830;2024-02-14T06:45:23;36.45;;;22.30;;
35644;SDS011;21764;52.042;6.830;2024-02-14T06:50:24;32.50;;;20.85;;
35644;SDS011;21764;52.042;6.830;2024-02-14T06:55:29;30.38;;;20.13;;
35644;SDS011;21764;52.042;6.830;2024-02-14T07:00:32;34.85;;;22.73;;
35644;SDS011;21764;52.042;6.830;2024-02-14T07:05:33;29.63;;;22.63;;
35644;SDS011;21764;52.042;6.830;2024-02-14T07:10:34;37.00;;;20.80;;
35644;SDS011;21764;52.042;6.830;2024-02-14T07:15:35;35.60;;;22.92;;
35644;SDS011;21764;52.042;6.830;2024-02-14T07:20:36;32.90;;;20.33;;
35644;SDS011;21764;52.042;6.830;2024-02-14T07:25:38;26.73;;;19.08;;
35644;SDS011;21764;52.042;6.830;2024-02-14T07:30:39;25.52;;;20.13;;
35644;SDS011;21764;52.042;6.830;2024-02-14T07:35:40;26.52;;;18.00;;
35644;SDS011;21764;52.042;6.830;2024-02-14T07:40:42;27.17;;;19.60;;
35644;SDS011;21764;52.042;6.830;2024-02-14T07:45:44;25.40;;;17.92;;
35644;SDS011;21764;52.042;6.830;2024-02-14T07:50:45;22.00;;;17.20;;
35644;SDS011;21764;52.042;6.830;2024-02-14T07:55:46;23.55;;;17.73;;
35644;SDS011;21764;52.042;6.830;2024-02-14T08:00:47;25.20;;;18.63;;
35644;SDS011;21764;52.042;6.830;2024-02-14T08:05:48;23.17;;;19.10;;
35644;SDS011;21764;52.042;6.830;2024-02-14T08:10:49;26.08;;;18.67;;
35644;SDS011;21764;52.042;6.830;2024-02-14T08:15:51;26.13;;;18.88;;
35644;SDS011;21764;52.042;6.830;2024-02-14T08:20:53;29.25;;;19.38;;
35644;SDS011;21764;52.042;6.830;2024-02-14T08:25:54;35.28;;;22.23;;
35644;SDS011;21764;52.042;6.830;2024-02-14T08:30:55;36.83;;;22.95;;
35644;SDS011;21764;52.042;6.830;2024-02-14T08:35:57;35.40;;;22.80;;
35644;SDS011;21764;52.042;6.830;2024-02-14T08:40:58;33.20;;;23.75;;
35644;SDS011;21764;52.042;6.830;2024-02-14T08:45:59;36.08;;;24.45;;
35644;SDS011;21764;52.042;6.830;2024-02-14T08:51:00;36.85;;;24.77;;
35644;SDS011;21764;52.042;6.830;2024-02-14T08:56:04;38.08;;;23.55;;
35644;SDS011;21764;52.042;6.830;2024-02-14T09:01:05;38.58;;;25.95;;
35644;SDS011;21764;52.042;6.830;2024-02-14T09:06:07;43.13;;;23.08;;
35644;SDS011;21764;52.042;6.830;2024-02-14T09:11:11;39.83;;;23.38;;
35644;SDS011;21764;52.042;6.830;2024-02-14T09:16:15;32.70;;;22.70;;
35644;SDS011;21764;52.042;6.830;2024-02-14T09:21:16;33.33;;;22.70;;
35644;SDS011;21764;52.042;6.830;2024-02-14T09:26:18;37.22;;;21.80;;
35644;SDS011;21764;52.042;6.830;2024-02-14T09:31:19;34.97;;;20.63;;
35644;SDS011;21764;52.042;6.830;2024-02-14T09:36:23;35.27;;;19.63;;
35644;SDS011;21764;52.042;6.830;2024-02-14T09:46:31;25.75;;;16.63;;
35644;SDS011;21764;52.042;6.830;2024-02-14T09:51:32;26.65;;;16.45;;
35644;SDS011;21764;52.042;6.830;2024-02-14T09:56:33;30.23;;;17.85;;
35644;SDS011;21764;52.042;6.830;2024-02-14T10:01:35;23.65;;;17.05;;
35644;SDS011;21764;52.042;6.830;2024-02-14T10:06:45;22.83;;;15.98;;
35644;SDS011;21764;52.042;6.830;2024-02-14T10:11:46;19.95;;;14.82;;
35644;SDS011;21764;52.042;6.830;2024-02-14T10:16:49;22.92;;;17.17;;
35644;SDS011;21764;52.042;6.830;2024-02-14T10:21:59;17.75;;;13.38;;
35644;SDS011;21764;52.042;6.830;2024-02-14T10:27:07;23.00;;;15.60;;
35644;SDS011;21764;52.042;6.830;2024-02-14T10:32:08;23.73;;;16.40;;
35644;SDS011;21764;52.042;6.830;2024-02-14T10:37:13;22.23;;;16.40;;
35644;SDS011;21764;52.042;6.830;2024-02-14T10:42:18;29.83;;;20.73;;
35644;SDS011;21764;52.042;6.830;2024-02-14T10:47:30;36.57;;;25.43;;
35644;SDS011;21764;52.042;6.830;2024-02-14T10:52:35;24.65;;;17.33;;
35644;SDS011;21764;52.042;6.830;2024-02-14T10:57:37;28.67;;;18.60;;
35644;SDS011;21764;52.042;6.830;2024-02-14T11:02:38;33.85;;;19.30;;
35644;SDS011;21764;52.042;6.830;2024-02-14T11:07:44;31.45;;;19.67;;
35644;SDS011;21764;52.042;6.830;2024-02-14T11:12:46;39.08;;;21.20;;
35644;SDS011;21764;52.042;6.830;2024-02-14T11:17:48;42.65;;;20.88;;
35644;SDS011;21764;52.042;6.830;2024-02-14T11:22:56;36.20;;;21.15;;
35644;SDS011;21764;52.042;6.830;2024-02-14T11:27:57;32.88;;;19.80;;
35644;SDS011;21764;52.042;6.830;2024-02-14T11:38:29;29.52;;;17.60;;
35644;SDS011;21764;52.042;6.830;2024-02-14T11:43:30;28.63;;;15.02;;
35644;SDS011;21764;52.042;6.830;2024-02-14T11:48:32;24.00;;;15.15;;
35644;SDS011;21764;52.042;6.830;2024-02-14T11:53:33;22.00;;;13.85;;
35644;SDS011;21764;52.042;6.830;2024-02-14T11:58:34;17.95;;;12.48;;
35644;SDS011;21764;52.042;6.830;2024-02-14T12:03:35;30.23;;;16.77;;
35644;SDS011;21764;52.042;6.830;2024-02-14T12:08:39;35.72;;;15.40;;
35644;SDS011;21764;52.042;6.830;2024-02-14T12:13:40;18.27;;;10.90;;
35644;SDS011;21764;52.042;6.830;2024-02-14T12:18:43;18.70;;;10.10;;
35644;SDS011;21764;52.042;6.830;2024-02-14T12:23:44;21.23;;;10.07;;
35644;SDS011;21764;52.042;6.830;2024-02-14T12:28:45;21.77;;;9.70;;
35644;SDS011;21764;52.042;6.830;2024-02-14T12:33:47;16.00;;;9.35;;
35644;SDS011;21764;52.042;6.830;2024-02-14T12:38:49;18.83;;;10.73;;
35644;SDS011;21764;52.042;6.830;2024-02-14T12:43:52;17.02;;;10.98;;
35644;SDS011;21764;52.042;6.830;2024-02-14T12:48:54;19.05;;;9.48;;
35644;SDS011;21764;52.042;6.830;2024-02-14T12:53:56;21.20;;;10.93;;
35644;SDS011;21764;52.042;6.830;2024-02-14T12:58:57;15.60;;;10.88;;
35644;SDS011;21764;52.042;6.830;2024-02-14T13:03:59;15.63;;;10.60;;
35644;SDS011;21764;52.042;6.830;2024-02-14T13:09:02;10.95;;;8.70;;
35644;SDS011;21764;52.042;6.830;2024-02-14T13:14:05;10.23;;;7.93;;
35644;SDS011;21764;52.042;6.830;2024-02-14T13:19:06;12.10;;;7.07;;
35644;SDS011;21764;52.042;6.830;2024-02-14T13:24:07;8.55;;;5.90;;
35644;SDS011;21764;52.042;6.830;2024-02-14T13:29:09;7.60;;;5.68;;
35644;SDS011;21764;52.042;6.830;2024-02-14T13:34:10;8.15;;;5.95;;
35644;SDS011;21764;52.042;6.830;2024-02-14T13:39:11;8.80;;;5.40;;
35644;SDS011;21764;52.042;6.830;2024-02-14T13:44:13;6.50;;;5.43;;
35644;SDS011;21764;52.042;6.830;2024-02-14T13:49:14;13.23;;;6.57;;
35644;SDS011;21764;52.042;6.830;2024-02-14T13:54:18;6.78;;;5.97;;
35644;SDS011;21764;52.042;6.830;2024-02-14T13:59:19;9.02;;;6.10;;
35644;SDS011;21764;52.042;6.830;2024-02-14T14:04:20;7.00;;;5.75;;
35644;SDS011;21764;52.042;6.830;2024-02-14T14:09:21;9.38;;;5.40;;
35644;SDS011;21764;52.042;6.830;2024-02-14T14:14:22;7.82;;;5.35;;
35644;SDS011;21764;52.042;6.830;2024-02-14T14:19:26;4.80;;;4.40;;
35644;SDS011;21764;52.042;6.830;2024-02-14T14:24:27;8.27;;;4.43;;
35644;SDS011;21764;52.042;6.830;2024-02-14T14:29:31;8.20;;;4.47;;
35644;SDS011;21764;52.042;6.830;2024-02-14T14:34:32;6.32;;;4.72;;
35644;SDS011;21764;52.042;6.830;2024-02-14T14:39:33;5.72;;;4.88;;
35644;SDS011;21764;52.042;6.830;2024-02-14T14:44:34;9.48;;;4.32;;
35644;SDS011;21764;52.042;6.830;2024-02-14T14:49:35;7.72;;;5.53;;
35644;SDS011;21764;52.042;6.830;2024-02-14T14:54:38;6.53;;;4.10;;
35644;SDS011;21764;52.042;6.830;2024-02-14T14:59:40;6.88;;;4.22;;
35644;SDS011;21764;52.042;6.830;2024-02-14T15:04:41;6.45;;;4.95;;
35644;SDS011;21764;52.042;6.830;2024-02-14T15:09:44;9.30;;;6.55;;
35644;SDS011;21764;52.042;6.830;2024-02-14T15:14:45;10.57;;;7.07;;
35644;SDS011;21764;52.042;6.830;2024-02-14T15:19:46;11.77;;;8.00;;
35644;SDS011;21764;52.042;6.830;2024-02-14T15:24:47;13.65;;;9.60;;
35644;SDS011;21764;52.042;6.830;2024-02-14T15:29:57;31.42;;;26.38;;
35644;SDS011;21764;52.042;6.830;2024-02-14T15:35:18;16.80;;;14.27;;
35644;SDS011;21764;52.042;6.830;2024-02-14T15:40:19;38.50;;;32.72;;
35644;SDS011;21764;52.042;6.830;2024-02-14T15:45:20;19.15;;;16.52;;
35644;SDS011;21764;52.042;6.830;2024-02-14T15:50:21;28.63;;;23.23;;
35644;SDS011;21764;52.042;6.830;2024-02-14T15:55:22;13.05;;;8.63;;
35644;SDS011;21764;52.042;6.830;2024-02-14T16:00:24;32.33;;;25.52;;
35644;SDS011;21764;52.042;6.830;2024-02-14T16:05:30;12.13;;;9.02;;
35644;SDS011;21764;52.042;6.830;2024-02-14T16:10:31;11.35;;;9.05;;
35644;SDS011;21764;52.042;6.830;2024-02-14T16:15:32;14.52;;;13.02;;
35644;SDS011;21764;52.042;6.830;2024-02-14T16:20:35;18.40;;;15.40;;
35644;SDS011;21764;52.042;6.830;2024-02-14T16:25:37;20.42;;;16.58;;
35644;SDS011;21764;52.042;6.830;2024-02-14T16:30:38;28.92;;;25.45;;
35644;SDS011;21764;52.042;6.830;2024-02-14T16:35:39;15.15;;;12.50;;
35644;SDS011;21764;52.042;6.830;2024-02-14T16:40:40;19.60;;;14.95;;
35644;SDS011;21764;52.042;6.830;2024-02-14T16:45:41;14.18;;;12.68;;
35644;SDS011;21764;52.042;6.830;2024-02-14T16:50:42;14.60;;;13.10;;
35644;SDS011;21764;52.042;6.830;2024-02-14T16:55:44;12.65;;;11.07;;
35644;SDS011;21764;52.042;6.830;2024-02-14T17:00:45;17.10;;;12.43;;
35644;SDS011;21764;52.042;6.830;2024-02-14T17:05:46;21.33;;;15.70;;
35644;SDS011;21764;52.042;6.830;2024-02-14T17:10:47;14.20;;;12.40;;
35644;SDS011;21764;52.042;6.830;2024-02-14T17:15:48;15.68;;;13.98;;
35644;SDS011;21764;52.042;6.830;2024-02-14T17:20:49;14.10;;;12.52;;
35644;SDS011;21764;52.042;6.830;2024-02-14T17:25:50;17.52;;;14.15;;
35644;SDS011;21764;52.042;6.830;2024-02-14T17:30:51;16.25;;;14.55;;
35644;SDS011;21764;52.042;6.830;2024-02-14T17:35:52;18.88;;;14.27;;
35644;SDS011;21764;52.042;6.830;2024-02-14T17:40:54;21.60;;;16.25;;
35644;SDS011;21764;52.042;6.830;2024-02-14T17:45:55;20.45;;;17.00;;
35644;SDS011;21764;52.042;6.830;2024-02-14T17:50:56;23.77;;;18.85;;
35644;SDS011;21764;52.042;6.830;2024-02-14T17:55:58;22.05;;;18.17;;
35644;SDS011;21764;52.042;6.830;2024-02-14T18:00:59;23.80;;;17.70;;
35644;SDS011;21764;52.042;6.830;2024-02-14T18:06:00;21.67;;;18.40;;
35644;SDS011;21764;52.042;6.830;2024-02-14T18:11:02;25.27;;;19.83;;
35644;SDS011;21764;52.042;6.830;2024-02-14T18:16:03;26.08;;;21.25;;
35644;SDS011;21764;52.042;6.830;2024-02-14T18:21:05;29.73;;;21.05;;
35644;SDS011;21764;52.042;6.830;2024-02-14T18:26:13;30.35;;;23.20;;
35644;SDS011;21764;52.042;6.830;2024-02-14T18:31:17;34.23;;;24.27;;
35644;SDS011;21764;52.042;6.830;2024-02-14T18:36:18;30.85;;;24.42;;
35644;SDS011;21764;52.042;6.830;2024-02-14T18:41:20;34.72;;;24.88;;
35644;SDS011;21764;52.042;6.830;2024-02-14T18:46:21;34.17;;;25.55;;
35644;SDS011;21764;52.042;6.830;2024-02-14T18:51:23;37.47;;;27.02;;
35644;SDS011;21764;52.042;6.830;2024-02-14T18:56:25;34.10;;;24.35;;
35644;SDS011;21764;52.042;6.830;2024-02-14T19:01:26;31.98;;;24.90;;
35644;SDS011;21764;52.042;6.830;2024-02-14T19:06:27;35.78;;;25.75;;
35644;SDS011;21764;52.042;6.830;2024-02-14T19:11:35;39.05;;;25.60;;
35644;SDS011;21764;52.042;6.830;2024-02-14T19:16:36;41.50;;;26.83;;
35644;SDS011;21764;52.042;6.830;2024-02-14T19:21:37;40.40;;;25.50;;
35644;SDS011;21764;52.042;6.830;2024-02-14T19:26:38;37.95;;;27.42;;
35644;SDS011;21764;52.042;6.830;2024-02-14T19:31:39;36.55;;;28.58;;
35644;SDS011;21764;52.042;6.830;2024-02-14T19:36:40;37.72;;;27.48;;
35644;SDS011;21764;52.042;6.830;2024-02-14T19:41:41;42.67;;;28.92;;
35644;SDS011;21764;52.042;6.830;2024-02-14T19:46:43;39.45;;;27.65;;
35644;SDS011;21764;52.042;6.830;2024-02-14T19:51:44;41.92;;;27.58;;
35644;SDS011;21764;52.042;6.830;2024-02-14T19:56:45;40.28;;;27.90;;
35644;SDS011;21764;52.042;6.830;2024-02-14T20:01:46;40.22;;;27.15;;
35644;SDS011;21764;52.042;6.830;2024-02-14T20:06:47;38.03;;;27.20;;
35644;SDS011;21764;52.042;6.830;2024-02-14T20:11:50;39.65;;;26.13;;
35644;SDS011;21764;52.042;6.830;2024-02-14T20:16:51;41.15;;;25.77;;
35644;SDS011;21764;52.042;6.830;2024-02-14T20:21:52;41.45;;;24.77;;
35644;SDS011;21764;52.042;6.830;2024-02-14T20:26:53;34.90;;;24.40;;
35644;SDS011;21764;52.042;6.830;2024-02-14T20:31:54;44.35;;;27.08;;
35644;SDS011;21764;52.042;6.830;2024-02-14T20:36:55;41.40;;;27.58;;
35644;SDS011;21764;52.042;6.830;2024-02-14T20:41:56;45.17;;;28.65;;
35644;SDS011;21764;52.042;6.830;2024-02-14T20:46:57;50.10;;;29.17;;
35644;SDS011;21764;52.042;6.830;2024-02-14T20:52:00;47.65;;;29.35;;
35644;SDS011;21764;52.042;6.830;2024-02-14T20:57:02;49.55;;;29.58;;
35644;SDS011;21764;52.042;6.830;2024-02-14T21:02:03;48.42;;;30.10;;
35644;SDS011;21764;52.042;6.830;2024-02-14T21:07:05;50.83;;;30.17;;
35644;SDS011;21764;52.042;6.830;2024-02-14T21:12:06;55.53;;;29.95;;
35644;SDS011;21764;52.042;6.830;2024-02-14T21:17:08;47.10;;;29.13;;
35644;SDS011;21764;52.042;6.830;2024-02-14T21:22:09;50.20;;;30.85;;
35644;SDS011;21764;52.042;6.830;2024-02-14T21:27:10;50.15;;;31.23;;
35644;SDS011;21764;52.042;6.830;2024-02-14T21:32:14;54.85;;;31.85;;
35644;SDS011;21764;52.042;6.830;2024-02-14T21:37:15;55.13;;;30.65;;
35644;SDS011;21764;52.042;6.830;2024-02-14T21:42:16;54.80;;;30.55;;
35644;SDS011;21764;52.042;6.830;2024-02-14T21:47:18;58.70;;;32.92;;
35644;SDS011;21764;52.042;6.830;2024-02-14T21:52:20;59.83;;;32.47;;
35644;SDS011;21764;52.042;6.830;2024-02-14T21:57:22;54.08;;;32.33;;
35644;SDS011;21764;52.042;6.830;2024-02-14T22:02:23;64.32;;;31.42;;
35644;SDS011;21764;52.042;6.830;2024-02-14T22:07:24;54.05;;;31.15;;
35644;SDS011;21764;52.042;6.830;2024-02-14T22:12:25;44.42;;;30.83;;
35644;SDS011;21764;52.042;6.830;2024-02-14T22:17:26;45.00;;;30.05;;
35644;SDS011;21764;52.042;6.830;2024-02-14T22:22:27;53.17;;;31.40;;
35644;SDS011;21764;52.042;6.830;2024-02-14T22:27:28;52.58;;;31.73;;
35644;SDS011;21764;52.042;6.830;2024-02-14T22:32:29;52.80;;;31.60;;
35644;SDS011;21764;52.042;6.830;2024-02-14T22:37:31;55.53;;;32.22;;
35644;SDS011;21764;52.042;6.830;2024-02-14T22:42:32;56.83;;;34.08;;
35644;SDS011;21764;52.042;6.830;2024-02-14T22:47:33;59.08;;;34.25;;
35644;SDS011;21764;52.042;6.830;2024-02-14T22:52:34;57.00;;;34.75;;
35644;SDS011;21764;52.042;6.830;2024-02-14T22:57:38;66.35;;;36.03;;
35644;SDS011;21764;52.042;6.830;2024-02-14T23:02:40;57.03;;;34.93;;
35644;SDS011;21764;52.042;6.830;2024-02-14T23:07:42;62.67;;;35.83;;
35644;SDS011;21764;52.042;6.830;2024-02-14T23:12:44;61.45;;;35.13;;
35644;SDS011;21764;52.042;6.830;2024-02-14T23:17:45;66.70;;;35.83;;
35644;SDS011;21764;52.042;6.830;2024-02-14T23:22:46;62.90;;;36.78;;
35644;SDS011;21764;52.042;6.830;2024-02-14T23:27:48;62.85;;;34.15;;
35644;SDS011;21764;52.042;6.830;2024-02-14T23:32:50;61.05;;;33.10;;
35644;SDS011;21764;52.042;6.830;2024-02-14T23:37:51;72.03;;;37.90;;
35644;SDS011;21764;52.042;6.830;2024-02-14T23:42:54;64.60;;;35.50;;
35644;SDS011;21764;52.042;6.830;2024-02-14T23:47:59;58.58;;;36.05;;
35644;SDS011;21764;52.042;6.830;2024-02-14T23:58:05;65.63;;;35.63;;
